Waterville, Ohio
Current Conditions -  °F | °C
As of 6:52 PM on Saturday 22 Nov 2014 (Local Time) from KTOL Reporting Station
Few Clouds Few Clouds  
Wind Chill: 44°   Ceiling: Unl
Heat Index: 48°   Visibility: 10mi
Dew Point: 41°   Wind: 9mph
Humidity: 77%   Direction: 210°SSW
Pressure: 29.97"   Gusts: NA
Location:  41.5°N, 83.72°W
Report Text: KTOL 222352Z 21008KT 10SM FEW050 09/05 A2997 RMK AO2 SLP154 60002 T00890050 10094 20061 55004
Loading
Personal Weather Stations






























Interactive Weather Map New forecast layout! Learn more

10-Day Weather Forecast

Advertisements
Track Severe Weather on mobile